Time;durP1;ratioP1;P1;durP2;ratioP2;P2;SDS_P1;SDS_P2;PMS_P1;PMS_P2;Temp;Humidity;BMP_temperature;BMP_pressure;BME280_temperature;BME280_humidity;BME280_pressure;Samples;Min_cycle;Max_cycle;Signal;HPM_P1;HPM_P2
2023/06/08 07:36:08;;;;;;;2.90;2.70;;;23.40;74.30;;;;;;5084630;28;20522;-91
2023/06/08 07:38:35;;;;;;;2.43;2.27;;;23.30;74.30;;;;;;5096012;28;20440;-83
2023/06/08 07:41:02;;;;;;;2.70;2.50;;;23.40;75.30;;;;;;5095830;28;20437;-86
2023/06/08 07:43:28;;;;;;;2.50;2.30;;;23.40;74.30;;;;;;5095735;28;20437;-85
2023/06/08 07:45:55;;;;;;;10.27;5.10;;;23.40;74.10;;;;;;5095629;28;20489;-87
2023/06/08 07:48:22;;;;;;;8.83;5.97;;;23.40;75.30;;;;;;5095930;28;20447;-87
2023/06/08 07:50:49;;;;;;;7.80;5.53;;;23.50;76.10;;;;;;5095237;28;20445;-86
2023/06/08 07:53:18;;;;;;;11.20;5.50;;;23.40;76.10;;;;;;5095470;28;20482;-86
2023/06/08 07:55:45;;;;;;;8.20;5.90;;;23.40;76.40;;;;;;5095680;28;20438;-86
2023/06/08 07:58:11;;;;;;;16.70;7.00;;;23.40;76.60;;;;;;5095336;28;20432;-85
2023/06/08 08:00:39;;;;;;;9.80;6.00;;;23.40;76.90;;;;;;5095295;28;20794;-86
2023/06/08 08:03:06;;;;;;;7.13;5.70;;;23.40;77.00;;;;;;5095530;28;20911;-87
2023/06/08 08:05:33;;;;;;;12.23;7.33;;;23.40;77.40;;;;;;5095723;28;20838;-87
2023/06/08 08:08:00;;;;;;;12.67;6.80;;;23.30;77.20;;;;;;5095343;28;20445;-87
2023/06/08 08:10:28;;;;;;;11.60;7.03;;;23.40;77.60;;;;;;5095482;28;20466;-87
2023/06/08 08:12:55;;;;;;;8.47;6.47;;;23.40;78.00;;;;;;5095384;28;20444;-87
2023/06/08 08:15:22;;;;;;;14.60;6.57;;;23.40;78.00;;;;;;5095175;28;20514;-87
2023/06/08 08:17:50;;;;;;;6.87;5.70;;;23.40;78.60;;;;;;5077355;28;20972;-87
2023/06/08 08:20:17;;;;;;;11.93;6.07;;;23.30;78.40;;;;;;5094509;28;20451;-87
2023/06/08 08:22:44;;;;;;;8.83;5.97;;;23.30;78.80;;;;;;5095133;28;20437;-87
2023/06/08 08:25:11;;;;;;;10.27;5.47;;;23.40;77.90;;;;;;5095304;28;20713;-88
2023/06/08 08:27:39;;;;;;;8.20;4.87;;;23.40;77.60;;;;;;5095230;28;20428;-87
2023/06/08 08:30:07;;;;;;;13.87;6.63;;;23.40;77.60;;;;;;5095144;28;20792;-88
2023/06/08 08:32:34;;;;;;;7.33;6.07;;;23.40;78.80;;;;;;5095124;28;20432;-88
2023/06/08 08:35:01;;;;;;;7.33;5.97;;;23.50;77.90;;;;;;5094713;28;20446;-87
2023/06/08 08:37:28;;;;;;;7.57;5.87;;;23.50;78.30;;;;;;5095155;28;20446;-88
2023/06/08 08:39:55;;;;;;;8.73;5.30;;;23.50;78.00;;;;;;5094907;28;20559;-87
2023/06/08 08:42:25;;;;;;;12.27;6.40;;;23.50;77.70;;;;;;5094969;28;20442;-86
2023/06/08 08:44:55;;;;;;;7.90;4.97;;;23.50;79.00;;;;;;5094794;28;20457;-87
2023/06/08 08:47:26;;;;;;;13.23;5.60;;;23.50;78.00;;;;;;5094567;28;20433;-85
2023/06/08 08:50:03;;;;;;;8.13;5.27;;;23.50;78.90;;;;;;5094480;28;20433;-86
2023/06/08 08:52:33;;;;;;;9.97;6.17;;;23.50;79.00;;;;;;5094051;28;20444;-85
2023/06/08 08:55:00;;;;;;;7.60;6.13;;;23.50;79.70;;;;;;5094333;28;20540;-86
2023/06/08 08:57:29;;;;;;;9.27;4.90;;;23.50;78.90;;;;;;5093627;28;20449;-86
2023/06/08 08:59:57;;;;;;;7.20;5.37;;;23.70;78.80;;;;;;5093998;28;20443;-86
2023/06/08 09:02:24;;;;;;;11.93;6.00;;;23.60;78.40;;;;;;5093876;28;20443;-86
2023/06/08 09:04:54;;;;;;;6.43;5.00;;;23.60;78.70;;;;;;5093738;28;20464;-86
2023/06/08 09:07:24;;;;;;;6.70;5.03;;;23.60;78.20;;;;;;5116562;22;20486;-85
2023/06/08 09:10:13;;;;;;;5.10;4.60;;;23.60;78.10;;;;;;5053372;28;20450;-85
2023/06/08 09:12:42;;;;;;;7.10;4.50;;;23.60;78.40;;;;;;5054535;28;20943;-89
2023/06/08 09:15:12;;;;;;;6.87;4.37;;;23.60;78.30;;;;;;5070087;28;20475;-82
2023/06/08 09:17:40;;;;;;;6.33;4.90;;;23.60;78.20;;;;;;5072953;28;20457;-82
2023/06/08 09:20:09;;;;;;;9.73;4.90;;;23.60;78.20;;;;;;5073180;28;20934;-82
2023/06/08 09:22:37;;;;;;;6.07;3.77;;;23.70;78.20;;;;;;5073236;28;20443;-83
2023/06/08 09:25:04;;;;;;;6.37;4.50;;;23.60;77.90;;;;;;5071453;28;20447;-84
2023/06/08 09:27:32;;;;;;;6.23;4.60;;;23.60;77.90;;;;;;5073365;28;20980;-92
2023/06/08 09:29:59;;;;;;;4.37;3.97;;;23.60;78.10;;;;;;5073499;28;20449;-82
2023/06/08 09:32:33;;;;;;;11.27;5.50;;;23.60;78.20;;;;;;5057143;28;20450;-83
2023/06/08 09:35:03;;;;;;;5.43;4.03;;;23.60;78.20;;;;;;5072858;28;20453;-83
2023/06/08 09:37:30;;;;;;;9.07;4.70;;;23.60;78.00;;;;;;5074231;28;20816;-83
2023/06/08 09:39:58;;;;;;;6.03;3.93;;;23.60;77.90;;;;;;5072186;28;20446;-83
2023/06/08 09:42:41;;;;;;;9.07;4.77;;;23.70;77.90;;;;;;5071645;28;20436;-84
2023/06/08 09:45:10;;;;;;;5.27;4.70;;;23.70;78.00;;;;;;5073023;28;20475;-83
2023/06/08 09:47:38;;;;;;;5.50;3.60;;;23.70;77.80;;;;;;5070816;28;20538;-83
2023/06/08 09:50:07;;;;;;;3.67;3.37;;;23.70;77.90;;;;;;5071963;28;20441;-82
2023/06/08 09:52:36;;;;;;;5.33;3.50;;;23.70;77.80;;;;;;5072649;28;20453;-84
2023/06/08 09:55:03;;;;;;;7.20;4.77;;;23.70;77.70;;;;;;5072197;28;20898;-84
2023/06/08 09:57:35;;;;;;;5.87;4.40;;;23.70;77.60;;;;;;5071710;28;20437;-84
2023/06/08 10:00:14;;;;;;;5.73;3.97;;;23.60;77.60;;;;;;5071857;28;20481;-96
2023/06/08 10:02:53;;;;;;;4.17;3.77;;;23.70;77.40;;;;;;5073209;28;20438;-84
2023/06/08 10:05:22;;;;;;;6.03;4.43;;;23.70;77.30;;;;;;5073973;28;20789;-84
2023/06/08 10:07:53;;;;;;;4.87;3.63;;;23.70;77.30;;;;;;5073726;28;20545;-95
2023/06/08 10:10:23;;;;;;;5.90;4.13;;;23.70;77.30;;;;;;5076023;28;20478;-83
2023/06/08 10:12:50;;;;;;;6.70;3.77;;;23.70;77.50;;;;;;5077364;28;20437;-83
2023/06/08 10:15:18;;;;;;;3.97;3.67;;;23.70;77.30;;;;;;5077284;28;20579;-84
2023/06/08 10:17:47;;;;;;;4.23;3.80;;;23.70;78.20;;;;;;5077371;28;20497;-84
2023/06/08 10:20:16;;;;;;;4.07;3.77;;;23.70;77.40;;;;;;5077112;28;20449;-84
2023/06/08 10:22:44;;;;;;;4.40;3.73;;;23.70;77.30;;;;;;5076929;28;21054;-84
2023/06/08 10:25:13;;;;;;;4.93;3.40;;;23.70;77.20;;;;;;5076713;28;20450;-83
2023/06/08 10:27:47;;;;;;;3.90;3.50;;;23.70;77.30;;;;;;5076790;28;20481;-84
2023/06/08 10:30:27;;;;;;;4.77;4.20;;;23.70;77.20;;;;;;5076843;28;20927;-84
2023/06/08 10:33:06;;;;;;;5.53;3.90;;;23.70;77.30;;;;;;5077237;28;20928;-84
2023/06/08 10:35:33;;;;;;;4.00;3.60;;;23.70;77.30;;;;;;5076964;28;20436;-96
2023/06/08 10:38:09;;;;;;;4.53;3.33;;;23.70;77.40;;;;;;5076713;28;20449;-94
2023/06/08 10:40:42;;;;;;;3.63;3.33;;;23.70;77.30;;;;;;5077116;28;20441;-84
2023/06/08 10:43:09;;;;;;;4.23;3.73;;;23.70;77.30;;;;;;5076703;28;20441;-91
2023/06/08 10:45:38;;;;;;;3.83;3.43;;;23.70;77.30;;;;;;5076553;28;20443;-84
2023/06/08 10:48:08;;;;;;;3.80;3.50;;;23.70;77.20;;;;;;5076839;28;20436;-96
2023/06/08 10:50:37;;;;;;;3.47;3.17;;;23.70;77.20;;;;;;5076589;28;20532;-84
2023/06/08 10:53:05;;;;;;;4.83;3.27;;;23.70;77.30;;;;;;5076753;28;20436;-84
2023/06/08 10:55:31;;;;;;;4.20;3.80;;;23.70;77.20;;;;;;5076349;28;20442;-84
2023/06/08 10:58:06;;;;;;;5.93;4.10;;;23.70;77.10;;;;;;5076598;28;20443;-96
2023/06/08 11:00:42;;;;;;;3.60;3.13;;;23.70;77.10;;;;;;5076613;28;20923;-83
2023/06/08 11:03:14;;;;;;;3.80;3.30;;;23.70;77.10;;;;;;5076492;28;20470;-84
2023/06/08 11:05:43;;;;;;;3.80;3.13;;;23.70;77.10;;;;;;5076054;28;20828;-84
2023/06/08 11:08:11;;;;;;;4.47;3.70;;;23.70;77.10;;;;;;5076343;28;20446;-84
2023/06/08 11:10:39;;;;;;;5.90;3.80;;;23.70;77.10;;;;;;5076284;28;20448;-88
2023/06/08 11:13:07;;;;;;;3.13;2.93;;;23.70;77.00;;;;;;5076113;28;20438;-84
2023/06/08 11:15:38;;;;;;;3.00;2.80;;;23.70;77.10;;;;;;5075987;28;20513;-83
2023/06/08 11:18:07;;;;;;;3.93;3.60;;;23.70;77.00;;;;;;5076276;28;20445;-96
2023/06/08 11:20:38;;;;;;;3.50;3.20;;;23.70;76.90;;;;;;5075855;28;20837;-84
2023/06/08 11:23:07;;;;;;;3.07;2.87;;;23.70;76.70;;;;;;5076238;28;20462;-83
2023/06/08 11:25:34;;;;;;;3.80;3.50;;;23.70;76.80;;;;;;5076119;28;20448;-96
2023/06/08 11:28:01;;;;;;;3.07;2.80;;;23.70;76.60;;;;;;5075607;28;20491;-83
2023/06/08 11:30:31;;;;;;;4.33;3.00;;;23.70;76.80;;;;;;5075987;28;20446;-89
2023/06/08 11:32:58;;;;;;;3.80;3.40;;;23.70;76.70;;;;;;5076150;28;20566;-96
2023/06/08 11:35:26;;;;;;;4.00;3.70;;;23.70;76.60;;;;;;5076128;28;20450;-83
2023/06/08 11:37:56;;;;;;;3.30;3.00;;;23.70;76.60;;;;;;5075893;28;20481;-84
2023/06/08 11:40:23;;;;;;;3.10;2.90;;;23.70;76.60;;;;;;5076612;28;20831;-96
2023/06/08 11:42:51;;;;;;;3.57;3.30;;;23.70;76.70;;;;;;5075816;28;20477;-84
2023/06/08 11:45:19;;;;;;;3.40;3.10;;;23.70;76.80;;;;;;5075702;28;20450;-89
2023/06/08 11:47:46;;;;;;;3.47;3.17;;;23.70;76.80;;;;;;5075712;28;20486;-84
2023/06/08 11:50:14;;;;;;;3.30;3.10;;;23.70;77.00;;;;;;5075372;28;20443;-84
2023/06/08 11:52:42;;;;;;;3.67;3.37;;;23.70;77.10;;;;;;5075746;28;20981;-88
2023/06/08 11:55:13;;;;;;;3.50;3.20;;;23.70;77.20;;;;;;5075268;28;20881;-85
2023/06/08 11:57:41;;;;;;;5.57;3.33;;;23.70;77.30;;;;;;5075798;28;20925;-84
2023/06/08 12:00:12;;;;;;;3.60;3.30;;;23.70;77.20;;;;;;5075739;28;20445;-84
2023/06/08 12:02:39;;;;;;;3.40;3.10;;;23.70;76.90;;;;;;5076007;28;20437;-96
2023/06/08 12:05:07;;;;;;;4.03;3.60;;;23.90;77.40;;;;;;5075132;28;20455;-84
2023/06/08 12:07:35;;;;;;;4.30;3.20;;;23.70;77.00;;;;;;5075039;28;20498;-84
2023/06/08 12:10:02;;;;;;;3.63;3.30;;;23.70;77.00;;;;;;5075063;28;20519;-89
2023/06/08 12:12:31;;;;;;;3.53;3.33;;;23.70;77.00;;;;;;5075073;28;20524;-84
2023/06/08 12:14:58;;;;;;;3.50;3.30;;;23.70;77.10;;;;;;5074662;28;20575;-84
2023/06/08 12:17:26;;;;;;;3.33;3.03;;;23.70;77.10;;;;;;5075108;28;20437;-83
2023/06/08 12:19:53;;;;;;;2.93;2.73;;;23.70;77.70;;;;;;5075035;28;20440;-84
2023/06/08 12:22:20;;;;;;;4.40;3.20;;;23.70;76.70;;;;;;5074879;28;20440;-96
2023/06/08 12:24:47;;;;;;;3.20;2.90;;;23.80;76.80;;;;;;5074553;28;20446;-85
2023/06/08 12:27:14;;;;;;;4.00;3.70;;;23.70;76.80;;;;;;5074902;28;20486;-83
2023/06/08 12:29:47;;;;;;;3.10;2.80;;;23.70;76.90;;;;;;5075087;28;20439;-84
2023/06/08 12:32:14;;;;;;;3.10;2.90;;;23.70;76.80;;;;;;5074009;28;20443;-84
2023/06/08 12:34:41;;;;;;;4.30;2.87;;;23.70;76.80;;;;;;5074908;28;20468;-84
2023/06/08 12:37:08;;;;;;;2.80;2.60;;;23.70;76.70;;;;;;5074629;28;20466;-96
2023/06/08 12:39:35;;;;;;;3.43;3.13;;;23.70;76.50;;;;;;5074531;28;20439;-86
2023/06/08 12:42:02;;;;;;;3.90;3.60;;;23.70;76.70;;;;;;5074449;28;20442;-85
2023/06/08 12:44:29;;;;;;;3.13;2.70;;;23.70;77.40;;;;;;5074689;28;20456;-84
2023/06/08 12:46:57;;;;;;;3.40;3.10;;;23.70;76.70;;;;;;5074379;28;20827;-84
2023/06/08 12:49:24;;;;;;;3.20;3.00;;;23.70;76.60;;;;;;5074404;28;20446;-84
2023/06/08 12:51:51;;;;;;;3.03;2.83;;;23.70;76.40;;;;;;5074252;28;20444;-84
2023/06/08 12:54:19;;;;;;;3.20;2.87;;;23.70;76.50;;;;;;5074395;28;20446;-94
2023/06/08 12:56:46;;;;;;;2.70;2.50;;;23.70;76.20;;;;;;5074140;28;20456;-93
2023/06/08 12:59:12;;;;;;;3.90;3.50;;;23.70;76.50;;;;;;5074248;28;20949;-84
2023/06/08 13:01:39;;;;;;;3.37;2.90;;;23.70;76.40;;;;;;5074032;28;20451;-84
2023/06/08 13:04:07;;;;;;;5.27;3.17;;;23.80;76.40;;;;;;5074561;28;20448;-84
2023/06/08 13:06:35;;;;;;;3.30;3.00;;;23.70;76.30;;;;;;5073857;28;20479;-83
2023/06/08 13:09:03;;;;;;;3.43;3.17;;;23.70;76.20;;;;;;5074097;28;20444;-84
2023/06/08 13:11:29;;;;;;;3.20;3.00;;;23.70;76.30;;;;;;5074091;28;20445;-84
2023/06/08 13:13:56;;;;;;;3.60;3.40;;;23.70;76.50;;;;;;5073864;28;20469;-84
2023/06/08 13:16:23;;;;;;;3.20;3.00;;;23.70;76.30;;;;;;5073897;28;20445;-84
2023/06/08 13:18:50;;;;;;;3.00;2.80;;;23.70;76.40;;;;;;5073820;28;20510;-85
2023/06/08 13:21:18;;;;;;;2.60;2.40;;;23.70;76.80;;;;;;5073799;28;20438;-93
2023/06/08 13:23:46;;;;;;;2.70;2.50;;;23.70;76.80;;;;;;5073869;28;20449;-83
2023/06/08 13:26:12;;;;;;;3.30;3.10;;;23.80;77.10;;;;;;5073980;28;20450;-84
2023/06/08 13:28:40;;;;;;;3.23;3.03;;;23.80;77.10;;;;;;5073434;28;20566;-83
2023/06/08 13:31:07;;;;;;;3.50;3.20;;;23.80;76.80;;;;;;5073789;28;21087;-83
2023/06/08 13:33:33;;;;;;;2.90;2.70;;;23.80;77.10;;;;;;5073582;28;20461;-83
2023/06/08 13:36:02;;;;;;;2.93;2.73;;;23.80;77.00;;;;;;5073514;28;20440;-83
2023/06/08 13:38:31;;;;;;;3.00;2.80;;;23.80;77.10;;;;;;5073591;28;20445;-83
2023/06/08 13:40:59;;;;;;;3.10;2.90;;;23.80;77.00;;;;;;5073388;28;20451;-85
2023/06/08 13:43:26;;;;;;;3.20;3.00;;;23.80;77.00;;;;;;5073140;28;20462;-83
2023/06/08 13:45:57;;;;;;;3.07;2.87;;;23.80;77.10;;;;;;5073557;28;20803;-95
2023/06/08 13:48:26;;;;;;;2.83;2.63;;;23.80;77.10;;;;;;5073580;28;20485;-83
2023/06/08 13:50:52;;;;;;;2.90;2.70;;;23.80;77.00;;;;;;5073518;28;20544;-84
2023/06/08 13:53:19;;;;;;;3.47;3.27;;;23.80;77.10;;;;;;5073324;28;20448;-94
2023/06/08 13:55:48;;;;;;;2.97;2.77;;;23.80;77.10;;;;;;5073672;28;20441;-83
2023/06/08 13:58:15;;;;;;;3.40;3.13;;;23.80;77.30;;;;;;5073325;28;20434;-83
2023/06/08 14:00:42;;;;;;;3.20;3.00;;;23.80;77.40;;;;;;5073348;28;20460;-94
2023/06/08 14:03:08;;;;;;;3.07;2.87;;;23.80;77.10;;;;;;5073223;28;20440;-83
2023/06/08 14:05:35;;;;;;;2.83;2.63;;;23.80;77.20;;;;;;5072933;28;20907;-87
2023/06/08 14:08:03;;;;;;;3.03;2.83;;;23.80;78.20;;;;;;5073326;28;20906;-84
2023/06/08 14:10:31;;;;;;;2.57;2.47;;;23.80;77.40;;;;;;5073164;28;20865;-83
2023/06/08 14:12:59;;;;;;;3.50;3.20;;;23.90;77.40;;;;;;5073117;28;20451;-84
2023/06/08 14:15:26;;;;;;;3.67;3.37;;;23.80;77.30;;;;;;5073162;28;20447;-85
2023/06/08 14:17:55;;;;;;;2.73;2.60;;;24.00;77.60;;;;;;5073374;28;20451;-84
2023/06/08 14:20:23;;;;;;;3.10;2.90;;;23.80;77.20;;;;;;5072990;28;20859;-84
2023/06/08 14:22:50;;;;;;;3.20;3.00;;;23.80;77.40;;;;;;5073158;28;20441;-85
2023/06/08 14:25:17;;;;;;;2.83;2.63;;;23.80;77.50;;;;;;5073459;28;20464;-83
2023/06/08 14:27:44;;;;;;;3.20;3.00;;;23.80;77.50;;;;;;5073222;28;20484;-93
2023/06/08 14:30:13;;;;;;;3.13;2.90;;;23.80;77.50;;;;;;5072936;28;20444;-84
2023/06/08 14:32:39;;;;;;;2.83;2.67;;;23.80;77.40;;;;;;5073211;28;20844;-85
2023/06/08 14:35:07;;;;;;;3.10;2.90;;;23.80;77.20;;;;;;5072831;28;20437;-84
2023/06/08 14:37:34;;;;;;;3.10;2.80;;;23.80;77.00;;;;;;5072901;28;20446;-84
2023/06/08 14:40:04;;;;;;;3.00;2.80;;;23.90;77.10;;;;;;5073003;28;20438;-84
2023/06/08 14:42:31;;;;;;;2.90;2.70;;;23.80;77.20;;;;;;5072979;28;20442;-83
2023/06/08 14:44:57;;;;;;;2.73;2.53;;;23.90;77.30;;;;;;5072629;28;20459;-84
2023/06/08 14:47:26;;;;;;;4.10;3.50;;;23.80;77.20;;;;;;5072704;28;20484;-94
2023/06/08 14:49:52;;;;;;;2.70;2.50;;;23.80;77.30;;;;;;5073043;28;20996;-84
2023/06/08 14:52:19;;;;;;;3.63;3.43;;;23.80;77.10;;;;;;5072695;28;20453;-83
2023/06/08 14:54:46;;;;;;;2.70;2.50;;;23.80;76.70;;;;;;5072851;28;20480;-84
2023/06/08 14:57:13;;;;;;;2.97;2.77;;;23.80;76.70;;;;;;5076317;28;20452;-82
2023/06/08 14:59:40;;;;;;;2.73;2.53;;;23.80;76.80;;;;;;5076582;28;20440;-84
2023/06/08 15:02:06;;;;;;;3.23;3.03;;;23.80;76.90;;;;;;5058559;28;20442;-83
2023/06/08 15:04:35;;;;;;;3.30;3.10;;;23.80;76.90;;;;;;5076578;28;20436;-84
2023/06/08 15:07:01;;;;;;;2.83;2.63;;;23.80;76.90;;;;;;5076027;28;20484;-84
2023/06/08 15:09:28;;;;;;;3.50;2.97;;;23.80;76.80;;;;;;5076660;28;20531;-84
2023/06/08 15:11:55;;;;;;;2.77;2.57;;;23.80;76.80;;;;;;5076323;28;20446;-84
2023/06/08 15:14:22;;;;;;;3.20;3.00;;;23.80;76.70;;;;;;5076412;28;20461;-85
2023/06/08 15:16:48;;;;;;;3.10;2.90;;;23.80;76.70;;;;;;5076239;28;20537;-84
2023/06/08 15:19:15;;;;;;;2.60;2.40;;;23.80;76.70;;;;;;5076150;28;20448;-84
2023/06/08 15:21:44;;;;;;;3.40;3.20;;;23.80;76.90;;;;;;5075964;28;20499;-95
2023/06/08 15:24:10;;;;;;;2.83;2.73;;;23.80;76.90;;;;;;5076073;28;20534;-83
2023/06/08 15:26:37;;;;;;;2.90;2.70;;;23.80;76.90;;;;;;5075774;28;20805;-84
2023/06/08 15:29:04;;;;;;;3.30;3.10;;;23.80;77.00;;;;;;5076055;28;20491;-84
2023/06/08 15:31:31;;;;;;;3.03;2.83;;;23.80;77.20;;;;;;5075863;28;20443;-84
2023/06/08 15:33:58;;;;;;;2.93;2.73;;;23.80;76.90;;;;;;5075966;28;20447;-84
2023/06/08 15:36:25;;;;;;;3.20;3.00;;;23.80;76.90;;;;;;5075737;28;20459;-84
2023/06/08 15:38:53;;;;;;;3.23;2.93;;;23.90;76.80;;;;;;5075549;28;20923;-84
2023/06/08 15:41:20;;;;;;;2.67;2.47;;;23.80;76.80;;;;;;5076128;28;20438;-96
2023/06/08 15:43:47;;;;;;;2.80;2.60;;;23.80;76.80;;;;;;5075687;28;20464;-95
2023/06/08 15:46:14;;;;;;;2.83;2.63;;;23.80;76.80;;;;;;5075577;28;20441;-84
2023/06/08 15:48:40;;;;;;;3.10;2.90;;;23.90;76.90;;;;;;5075780;28;20518;-85
2023/06/08 15:51:10;;;;;;;3.23;3.03;;;23.90;76.80;;;;;;5075497;28;20802;-83
2023/06/08 15:53:37;;;;;;;3.10;2.90;;;23.90;76.90;;;;;;5075418;28;20818;-84
2023/06/08 15:56:05;;;;;;;3.00;2.80;;;23.80;76.80;;;;;;5075913;28;20437;-83
2023/06/08 15:58:32;;;;;;;3.50;3.30;;;23.80;76.90;;;;;;5075443;28;20441;-84
2023/06/08 16:00:59;;;;;;;3.57;3.27;;;23.90;76.70;;;;;;5075618;28;20444;-83
2023/06/08 16:03:26;;;;;;;3.33;3.13;;;23.90;76.70;;;;;;5075504;28;20448;-88
2023/06/08 16:05:53;;;;;;;2.70;2.60;;;23.90;76.60;;;;;;5075475;28;20466;-96
2023/06/08 16:08:20;;;;;;;2.93;2.63;;;23.80;76.60;;;;;;5075536;28;20493;-84
2023/06/08 16:10:48;;;;;;;2.63;2.43;;;23.80;76.60;;;;;;5075460;28;20437;-96
2023/06/08 16:13:16;;;;;;;3.30;3.00;;;23.80;76.50;;;;;;5075409;28;20470;-84
2023/06/08 16:15:44;;;;;;;3.07;2.87;;;23.80;76.20;;;;;;5075111;28;20454;-84
2023/06/08 16:18:11;;;;;;;3.07;2.87;;;23.80;76.30;;;;;;5076037;28;20833;-89
2023/06/08 16:20:37;;;;;;;3.20;2.90;;;23.90;76.30;;;;;;5075532;28;20441;-92
2023/06/08 16:23:04;;;;;;;2.77;2.57;;;23.90;76.40;;;;;;5075497;28;20442;-96
2023/06/08 16:25:31;;;;;;;2.90;2.70;;;23.80;76.30;;;;;;5075456;28;20830;-85
2023/06/08 16:27:58;;;;;;;2.63;2.43;;;23.80;77.20;;;;;;5074702;28;20486;-84
2023/06/08 16:30:26;;;;;;;2.83;2.63;;;23.80;76.20;;;;;;5075108;28;20442;-84
2023/06/08 16:32:53;;;;;;;2.83;2.63;;;23.90;76.40;;;;;;5074846;28;20453;-85
2023/06/08 16:35:20;;;;;;;3.00;2.80;;;23.80;76.00;;;;;;5074848;28;20443;-83
2023/06/08 16:37:47;;;;;;;3.00;2.80;;;23.80;76.10;;;;;;5074953;28;20443;-95
2023/06/08 16:40:14;;;;;;;3.03;2.83;;;23.80;76.00;;;;;;5074760;28;20448;-96
2023/06/08 16:42:41;;;;;;;2.50;2.40;;;23.80;75.90;;;;;;5074454;28;20441;-84
2023/06/08 16:45:08;;;;;;;2.73;2.53;;;23.80;76.00;;;;;;5075142;28;20440;-84
2023/06/08 16:47:39;;;;;;;2.70;2.50;;;23.80;76.10;;;;;;5074602;28;20437;-84
2023/06/08 16:50:08;;;;;;;2.90;2.70;;;23.80;76.20;;;;;;5074380;28;20448;-84
2023/06/08 16:52:34;;;;;;;3.00;2.80;;;23.90;76.10;;;;;;5074140;28;20442;-83
2023/06/08 16:55:02;;;;;;;2.70;2.50;;;23.80;76.00;;;;;;5074618;28;20446;-84
2023/06/08 16:57:32;;;;;;;2.90;2.70;;;23.80;76.10;;;;;;5074576;28;20940;-95
2023/06/08 16:59:59;;;;;;;2.30;2.20;;;23.80;76.40;;;;;;5074522;28;20438;-84
2023/06/08 17:02:26;;;;;;;2.80;2.60;;;23.80;76.50;;;;;;5074510;28;20801;-84
2023/06/08 17:04:54;;;;;;;2.57;2.37;;;24.00;76.70;;;;;;5074209;28;20462;-84
2023/06/08 17:07:21;;;;;;;3.00;2.80;;;23.90;76.70;;;;;;5074178;28;20826;-84
2023/06/08 17:09:47;;;;;;;3.20;3.00;;;23.80;76.60;;;;;;5074329;28;20489;-94
2023/06/08 17:12:15;;;;;;;3.17;2.97;;;23.80;76.50;;;;;;5073851;28;20452;-84
2023/06/08 17:14:42;;;;;;;2.90;2.70;;;23.90;76.40;;;;;;5073911;28;20465;-84
2023/06/08 17:17:09;;;;;;;2.60;2.40;;;23.80;76.60;;;;;;5074194;28;20448;-84
2023/06/08 17:19:36;;;;;;;2.83;2.63;;;23.80;76.40;;;;;;5073678;28;20523;-84
2023/06/08 17:22:04;;;;;;;3.13;2.83;;;23.80;76.40;;;;;;5074348;28;20444;-84
2023/06/08 17:24:31;;;;;;;2.90;2.70;;;23.80;76.50;;;;;;5074194;28;20803;-86
2023/06/08 17:26:58;;;;;;;3.00;2.80;;;23.80;76.10;;;;;;5073886;28;20437;-83
2023/06/08 17:29:25;;;;;;;2.67;2.53;;;23.80;76.20;;;;;;5073804;28;20489;-95
2023/06/08 17:31:52;;;;;;;3.13;2.93;;;23.80;75.90;;;;;;5073889;28;20465;-96
2023/06/08 17:34:19;;;;;;;3.20;3.00;;;23.80;75.90;;;;;;5074176;28;20534;-96
2023/06/08 17:36:46;;;;;;;2.60;2.43;;;23.80;75.70;;;;;;5073638;28;20448;-84
2023/06/08 17:39:16;;;;;;;2.90;2.70;;;23.90;75.80;;;;;;5073876;28;20471;-91
2023/06/08 17:41:42;;;;;;;2.40;2.30;;;23.80;75.80;;;;;;5073753;28;20449;-84
2023/06/08 17:44:09;;;;;;;2.90;2.70;;;23.80;75.70;;;;;;5073696;28;20460;-85
2023/06/08 17:46:36;;;;;;;2.80;2.60;;;23.80;75.80;;;;;;5074098;28;20437;-84
2023/06/08 17:49:03;;;;;;;2.93;2.73;;;23.80;76.70;;;;;;5073447;28;20500;-85
2023/06/08 17:51:30;;;;;;;3.20;3.00;;;23.80;75.70;;;;;;5073557;28;20445;-84
2023/06/08 17:53:57;;;;;;;2.43;2.23;;;23.80;75.80;;;;;;5073467;28;20442;-84
2023/06/08 17:56:25;;;;;;;2.20;2.10;;;23.80;75.80;;;;;;5073534;28;20447;-96
2023/06/08 17:58:52;;;;;;;3.00;2.80;;;23.80;75.80;;;;;;5073536;28;20456;-84
2023/06/08 18:01:18;;;;;;;2.90;2.70;;;23.80;75.90;;;;;;5073620;28;20445;-84
2023/06/08 18:03:45;;;;;;;2.70;2.50;;;23.80;76.00;;;;;;5073609;28;20444;-84
2023/06/08 18:06:13;;;;;;;2.60;2.50;;;23.80;76.10;;;;;;5073337;28;20529;-95
2023/06/08 18:08:39;;;;;;;2.80;2.60;;;23.80;76.20;;;;;;5073381;28;20481;-83
2023/06/08 18:11:06;;;;;;;2.50;2.40;;;23.80;76.30;;;;;;5073287;28;20446;-85
2023/06/08 18:13:34;;;;;;;2.60;2.40;;;23.80;76.20;;;;;;5073055;28;20469;-83
2023/06/08 18:16:01;;;;;;;2.60;2.40;;;23.80;76.30;;;;;;5072922;28;20445;-82
2023/06/08 18:18:28;;;;;;;2.43;2.30;;;23.80;76.30;;;;;;5073374;28;20449;-83
2023/06/08 18:20:55;;;;;;;2.60;2.40;;;23.80;76.30;;;;;;5073146;28;20439;-85
2023/06/08 18:23:21;;;;;;;2.73;2.53;;;23.80;76.20;;;;;;5073122;28;20449;-83
2023/06/08 18:25:48;;;;;;;2.50;2.40;;;23.80;76.10;;;;;;5072963;28;20443;-83
2023/06/08 18:28:15;;;;;;;2.83;2.63;;;23.80;76.30;;;;;;5072927;28;20444;-87
2023/06/08 18:30:43;;;;;;;3.03;2.83;;;23.80;76.40;;;;;;5074469;28;20437;-83
2023/06/08 18:33:10;;;;;;;3.03;2.83;;;23.80;76.40;;;;;;5077047;28;20442;-87
2023/06/08 18:35:36;;;;;;;3.07;2.87;;;23.80;76.30;;;;;;5076980;28;20454;-83
2023/06/08 18:38:03;;;;;;;2.93;2.73;;;23.80;76.60;;;;;;5077062;28;20443;-95
2023/06/08 18:40:30;;;;;;;2.77;2.57;;;23.80;76.60;;;;;;5076433;28;20942;-82
2023/06/08 18:42:57;;;;;;;3.03;2.80;;;23.80;76.70;;;;;;5076864;28;20959;-83
2023/06/08 18:45:23;;;;;;;4.00;3.40;;;23.80;76.80;;;;;;5076590;28;20953;-84
2023/06/08 18:47:52;;;;;;;3.10;2.90;;;23.80;77.60;;;;;;5076797;28;20444;-93
2023/06/08 18:50:18;;;;;;;3.07;2.83;;;23.90;77.40;;;;;;5076882;28;20491;-95
2023/06/08 18:52:45;;;;;;;2.97;2.77;;;23.80;77.10;;;;;;5077267;28;20446;-90
2023/06/08 18:55:12;;;;;;;3.13;2.83;;;23.80;76.70;;;;;;5076731;28;20432;-83
2023/06/08 18:57:39;;;;;;;3.30;3.10;;;23.80;76.80;;;;;;5076980;28;20913;-95
2023/06/08 19:00:07;;;;;;;2.80;2.50;;;23.80;77.10;;;;;;5076890;28;20952;-83
2023/06/08 19:02:34;;;;;;;3.03;2.83;;;23.80;76.80;;;;;;5077127;28;20453;-82
2023/06/08 19:05:04;;;;;;;3.07;2.87;;;23.80;76.90;;;;;;5076942;28;20441;-90
2023/06/08 19:07:32;;;;;;;3.23;3.03;;;23.80;76.60;;;;;;5077179;28;20473;-83
2023/06/08 19:09:59;;;;;;;2.77;2.57;;;23.80;76.50;;;;;;5076723;28;20484;-82
2023/06/08 19:12:25;;;;;;;4.77;2.70;;;23.80;76.50;;;;;;5075942;28;20443;-94
2023/06/08 19:14:53;;;;;;;2.80;2.60;;;23.80;77.30;;;;;;5076530;28;20920;-94
2023/06/08 19:17:20;;;;;;;2.30;2.20;;;23.80;76.40;;;;;;5076493;28;20444;-87
2023/06/08 19:19:47;;;;;;;3.00;2.80;;;23.80;76.40;;;;;;5076282;28;20441;-82
2023/06/08 19:22:15;;;;;;;3.83;3.40;;;23.80;76.60;;;;;;5076236;28;20443;-86
2023/06/08 19:24:42;;;;;;;2.70;2.50;;;23.80;77.80;;;;;;5076093;28;20441;-82
2023/06/08 19:27:09;;;;;;;2.87;2.57;;;23.80;77.20;;;;;;5076249;28;20446;-80
2023/06/08 19:29:35;;;;;;;3.00;2.80;;;23.80;77.10;;;;;;5075975;28;20474;-83
2023/06/08 19:32:02;;;;;;;2.70;2.50;;;24.00;77.50;;;;;;5075216;28;20442;-83
2023/06/08 19:34:29;;;;;;;3.33;3.03;;;23.70;76.70;;;;;;5076038;28;20967;-83
2023/06/08 19:36:58;;;;;;;2.83;2.60;;;23.70;76.50;;;;;;5075919;28;20440;-84
2023/06/08 19:39:26;;;;;;;2.70;2.50;;;23.80;76.60;;;;;;5076059;28;20484;-84
2023/06/08 19:41:53;;;;;;;3.60;3.00;;;23.80;76.70;;;;;;5076171;28;21006;-85
2023/06/08 19:44:20;;;;;;;3.00;2.80;;;23.80;76.60;;;;;;5075357;28;20556;-84
2023/06/08 19:46:48;;;;;;;3.47;2.47;;;23.80;76.30;;;;;;5077647;28;20466;-83
2023/06/08 19:49:16;;;;;;;2.73;2.53;;;23.80;76.40;;;;;;5074252;28;20484;-85
2023/06/08 19:51:43;;;;;;;3.50;2.80;;;23.80;76.50;;;;;;5036882;28;20504;-85
2023/06/08 19:54:10;;;;;;;3.57;3.27;;;23.80;76.70;;;;;;5053835;28;20443;-85
2023/06/08 19:56:41;;;;;;;2.87;2.67;;;23.80;76.70;;;;;;5054296;28;20998;-84
2023/06/08 19:59:08;;;;;;;3.50;3.30;;;23.80;76.70;;;;;;5054198;28;20447;-84
2023/06/08 20:01:34;;;;;;;3.37;3.17;;;23.80;76.70;;;;;;5054512;28;20439;-83
2023/06/08 20:04:02;;;;;;;4.90;2.83;;;23.80;76.70;;;;;;5054104;28;20446;-83
2023/06/08 20:06:29;;;;;;;3.00;2.80;;;23.80;76.50;;;;;;5053990;28;20509;-83
2023/06/08 20:08:57;;;;;;;2.83;2.63;;;23.80;76.60;;;;;;5054946;28;20481;-82
2023/06/08 20:11:23;;;;;;;3.57;3.17;;;23.80;76.60;;;;;;5054690;28;20456;-87
2023/06/08 20:13:52;;;;;;;3.87;3.03;;;23.80;76.60;;;;;;5054848;28;20808;-82
2023/06/08 20:16:18;;;;;;;3.60;3.30;;;23.80;76.60;;;;;;5054972;28;20774;-82
2023/06/08 20:18:45;;;;;;;3.03;2.83;;;23.80;76.60;;;;;;5054830;28;20445;-82
2023/06/08 20:21:12;;;;;;;3.10;2.90;;;23.80;76.60;;;;;;5054882;28;20441;-82
2023/06/08 20:23:39;;;;;;;3.63;2.63;;;23.80;76.50;;;;;;5054175;28;20452;-82